sensor_id;sensor_type;location;lat;lon;timestamp;temperature;humidity
47414;DHT22;33163;0.000;0.000;2022-08-11T00:01:46;23.30;68.00
47414;DHT22;33163;0.000;0.000;2022-08-11T00:04:15;23.30;68.10
47414;DHT22;33163;0.000;0.000;2022-08-11T00:06:44;23.30;68.10
47414;DHT22;33163;0.000;0.000;2022-08-11T00:09:14;23.30;68.00
47414;DHT22;33163;0.000;0.000;2022-08-11T00:11:47;23.30;68.70
47414;DHT22;33163;0.000;0.000;2022-08-11T00:14:16;23.30;68.10
47414;DHT22;33163;0.000;0.000;2022-08-11T00:16:53;23.30;68.00
47414;DHT22;33163;0.000;0.000;2022-08-11T00:19:23;23.30;68.00
47414;DHT22;33163;0.000;0.000;2022-08-11T00:21:52;23.30;68.00
47414;DHT22;33163;0.000;0.000;2022-08-11T00:24:20;23.30;68.10
47414;DHT22;33163;0.000;0.000;2022-08-11T00:26:51;23.30;68.80
47414;DHT22;33163;0.000;0.000;2022-08-11T00:29:19;23.30;68.10
47414;DHT22;33163;0.000;0.000;2022-08-11T00:31:49;23.30;68.10
47414;DHT22;33163;0.000;0.000;2022-08-11T00:34:19;23.30;68.10
47414;DHT22;33163;0.000;0.000;2022-08-11T00:36:49;23.30;68.10
47414;DHT22;33163;0.000;0.000;2022-08-11T00:39:19;23.30;68.10
47414;DHT22;33163;0.000;0.000;2022-08-11T00:42:02;23.30;68.10
47414;DHT22;33163;0.000;0.000;2022-08-11T00:44:36;23.30;68.10
47414;DHT22;33163;0.000;0.000;2022-08-11T00:47:21;23.30;68.10
47414;DHT22;33163;0.000;0.000;2022-08-11T00:49:57;23.20;68.70
47414;DHT22;33163;0.000;0.000;2022-08-11T00:52:38;23.30;68.10
47414;DHT22;33163;0.000;0.000;2022-08-11T00:55:49;23.20;68.00
47414;DHT22;33163;0.000;0.000;2022-08-11T00:59:07;23.20;68.00
47414;DHT22;33163;0.000;0.000;2022-08-11T01:01:54;23.30;68.10
47414;DHT22;33163;0.000;0.000;2022-08-11T01:04:55;23.20;68.00
47414;DHT22;33163;0.000;0.000;2022-08-11T01:07:52;23.30;68.10
47414;DHT22;33163;0.000;0.000;2022-08-11T01:10:50;23.30;68.10
47414;DHT22;33163;0.000;0.000;2022-08-11T01:17:13;23.30;68.10
47414;DHT22;33163;0.000;0.000;2022-08-11T01:20:09;23.20;68.00
47414;DHT22;33163;0.000;0.000;2022-08-11T01:23:12;23.20;68.00
47414;DHT22;33163;0.000;0.000;2022-08-11T01:26:28;23.20;68.00
47414;DHT22;33163;0.000;0.000;2022-08-11T01:29:37;23.20;68.00
47414;DHT22;33163;0.000;0.000;2022-08-11T01:32:54;23.20;68.00
47414;DHT22;33163;0.000;0.000;2022-08-11T01:35:39;23.20;68.00
47414;DHT22;33163;0.000;0.000;2022-08-11T01:38:34;23.20;68.00
47414;DHT22;33163;0.000;0.000;2022-08-11T01:41:27;23.20;68.00
47414;DHT22;33163;0.000;0.000;2022-08-11T01:44:48;23.20;68.00
47414;DHT22;33163;0.000;0.000;2022-08-11T01:47:39;23.20;68.00
47414;DHT22;33163;0.000;0.000;2022-08-11T01:50:25;23.20;68.00
47414;DHT22;33163;0.000;0.000;2022-08-11T01:53:03;23.20;68.00
47414;DHT22;33163;0.000;0.000;2022-08-11T01:55:41;23.20;68.00
47414;DHT22;33163;0.000;0.000;2022-08-11T01:58:18;23.20;68.00
47414;DHT22;33163;0.000;0.000;2022-08-11T02:00:54;23.20;68.00
47414;DHT22;33163;0.000;0.000;2022-08-11T02:03:32;23.20;67.90
47414;DHT22;33163;0.000;0.000;2022-08-11T02:06:08;23.20;68.10
47414;DHT22;33163;0.000;0.000;2022-08-11T02:09:01;23.20;67.90
47414;DHT22;33163;0.000;0.000;2022-08-11T02:11:31;23.20;68.00
47414;DHT22;33163;0.000;0.000;2022-08-11T02:14:18;23.20;68.00
47414;DHT22;33163;0.000;0.000;2022-08-11T02:17:01;23.20;68.00
47414;DHT22;33163;0.000;0.000;2022-08-11T02:19:44;23.20;67.90
47414;DHT22;33163;0.000;0.000;2022-08-11T02:22:41;23.20;67.90
47414;DHT22;33163;0.000;0.000;2022-08-11T02:25:37;23.20;67.80
47414;DHT22;33163;0.000;0.000;2022-08-11T02:28:06;23.20;67.90
47414;DHT22;33163;0.000;0.000;2022-08-11T02:33:41;23.20;67.90
47414;DHT22;33163;0.000;0.000;2022-08-11T02:36:11;23.20;67.90
47414;DHT22;33163;0.000;0.000;2022-08-11T02:38:47;23.20;67.80
47414;DHT22;33163;0.000;0.000;2022-08-11T02:41:24;23.20;67.90
47414;DHT22;33163;0.000;0.000;2022-08-11T02:44:23;23.20;67.80
47414;DHT22;33163;0.000;0.000;2022-08-11T02:47:00;23.10;67.80
47414;DHT22;33163;0.000;0.000;2022-08-11T02:49:39;23.20;67.90
47414;DHT22;33163;0.000;0.000;2022-08-11T02:52:24;23.10;67.80
47414;DHT22;33163;0.000;0.000;2022-08-11T02:55:12;23.20;67.80
47414;DHT22;33163;0.000;0.000;2022-08-11T02:57:50;23.20;67.70
47414;DHT22;33163;0.000;0.000;2022-08-11T03:00:19;23.20;67.70
47414;DHT22;33163;0.000;0.000;2022-08-11T03:05:52;23.20;68.30
47414;DHT22;33163;0.000;0.000;2022-08-11T03:08:35;23.10;67.70
47414;DHT22;33163;0.000;0.000;2022-08-11T03:11:10;23.20;67.70
47414;DHT22;33163;0.000;0.000;2022-08-11T03:14:13;23.20;67.60
47414;DHT22;33163;0.000;0.000;2022-08-11T03:17:04;23.10;67.40
47414;DHT22;33163;0.000;0.000;2022-08-11T03:19:37;23.20;67.60
47414;DHT22;33163;0.000;0.000;2022-08-11T03:22:12;23.10;67.50
47414;DHT22;33163;0.000;0.000;2022-08-11T03:24:52;23.10;67.60
47414;DHT22;33163;0.000;0.000;2022-08-11T03:27:29;23.10;67.40
47414;DHT22;33163;0.000;0.000;2022-08-11T03:30:05;23.10;67.40
47414;DHT22;33163;0.000;0.000;2022-08-11T03:32:39;23.10;67.50
47414;DHT22;33163;0.000;0.000;2022-08-11T03:35:08;23.10;67.50
47414;DHT22;33163;0.000;0.000;2022-08-11T03:37:42;23.10;67.40
47414;DHT22;33163;0.000;0.000;2022-08-11T03:40:35;23.10;67.50
47414;DHT22;33163;0.000;0.000;2022-08-11T03:43:36;23.10;67.40
47414;DHT22;33163;0.000;0.000;2022-08-11T03:46:15;23.10;67.40
47414;DHT22;33163;0.000;0.000;2022-08-11T03:48:52;23.10;67.50
47414;DHT22;33163;0.000;0.000;2022-08-11T03:51:24;23.10;68.10
47414;DHT22;33163;0.000;0.000;2022-08-11T03:54:06;23.10;67.40
47414;DHT22;33163;0.000;0.000;2022-08-11T03:57:03;23.10;67.30
47414;DHT22;33163;0.000;0.000;2022-08-11T04:00:03;23.10;67.30
47414;DHT22;33163;0.000;0.000;2022-08-11T04:02:53;23.10;67.30
47414;DHT22;33163;0.000;0.000;2022-08-11T04:05:37;23.10;67.40
47414;DHT22;33163;0.000;0.000;2022-08-11T04:11:50;23.00;67.20
47414;DHT22;33163;0.000;0.000;2022-08-11T04:17:50;23.10;67.20
47414;DHT22;33163;0.000;0.000;2022-08-11T04:20:48;23.10;67.30
47414;DHT22;33163;0.000;0.000;2022-08-11T04:23:49;23.00;67.30
47414;DHT22;33163;0.000;0.000;2022-08-11T04:29:49;23.00;67.20
47414;DHT22;33163;0.000;0.000;2022-08-11T04:32:35;23.10;67.20
47414;DHT22;33163;0.000;0.000;2022-08-11T04:35:24;23.10;67.30
47414;DHT22;33163;0.000;0.000;2022-08-11T04:40:55;23.00;67.20
47414;DHT22;33163;0.000;0.000;2022-08-11T04:44:14;23.00;67.20
47414;DHT22;33163;0.000;0.000;2022-08-11T04:47:07;23.00;67.20
47414;DHT22;33163;0.000;0.000;2022-08-11T04:50:00;23.00;67.20
47414;DHT22;33163;0.000;0.000;2022-08-11T04:56:12;23.00;67.20
47414;DHT22;33163;0.000;0.000;2022-08-11T04:59:31;23.00;67.20
47414;DHT22;33163;0.000;0.000;2022-08-11T05:05:24;23.00;67.10
47414;DHT22;33163;0.000;0.000;2022-08-11T05:11:38;23.00;67.10
47414;DHT22;33163;0.000;0.000;2022-08-11T05:14:29;23.00;67.20
47414;DHT22;33163;0.000;0.000;2022-08-11T05:17:22;23.00;67.10
47414;DHT22;33163;0.000;0.000;2022-08-11T05:20:09;23.00;67.10
47414;DHT22;33163;0.000;0.000;2022-08-11T05:22:55;23.00;67.10
47414;DHT22;33163;0.000;0.000;2022-08-11T05:25:46;23.00;67.10
47414;DHT22;33163;0.000;0.000;2022-08-11T05:28:34;23.00;67.20
47414;DHT22;33163;0.000;0.000;2022-08-11T05:31:25;23.00;67.10
47414;DHT22;33163;0.000;0.000;2022-08-11T05:34:12;23.00;67.10
47414;DHT22;33163;0.000;0.000;2022-08-11T05:37:04;23.00;67.20
47414;DHT22;33163;0.000;0.000;2022-08-11T05:39:37;23.00;67.00
47414;DHT22;33163;0.000;0.000;2022-08-11T05:42:23;23.00;67.10
47414;DHT22;33163;0.000;0.000;2022-08-11T05:45:11;23.00;67.10
47414;DHT22;33163;0.000;0.000;2022-08-11T05:47:56;23.00;67.00
47414;DHT22;33163;0.000;0.000;2022-08-11T05:50:42;23.00;67.10
47414;DHT22;33163;0.000;0.000;2022-08-11T05:53:34;23.00;67.10
47414;DHT22;33163;0.000;0.000;2022-08-11T05:56:18;23.00;67.10
47414;DHT22;33163;0.000;0.000;2022-08-11T05:58:48;23.00;67.10
47414;DHT22;33163;0.000;0.000;2022-08-11T06:01:22;23.00;67.20
47414;DHT22;33163;0.000;0.000;2022-08-11T06:03:51;23.00;67.20
47414;DHT22;33163;0.000;0.000;2022-08-11T06:06:37;23.00;67.30
47414;DHT22;33163;0.000;0.000;2022-08-11T06:09:06;23.00;67.40
47414;DHT22;33163;0.000;0.000;2022-08-11T06:11:36;23.00;67.40
47414;DHT22;33163;0.000;0.000;2022-08-11T06:14:05;23.00;67.40
47414;DHT22;33163;0.000;0.000;2022-08-11T06:16:34;23.00;67.50
47414;DHT22;33163;0.000;0.000;2022-08-11T06:19:02;23.00;67.50
47414;DHT22;33163;0.000;0.000;2022-08-11T06:21:32;23.00;67.50
47414;DHT22;33163;0.000;0.000;2022-08-11T06:24:02;23.00;67.50
47414;DHT22;33163;0.000;0.000;2022-08-11T06:26:29;23.00;67.70
47414;DHT22;33163;0.000;0.000;2022-08-11T06:28:57;23.00;67.80
47414;DHT22;33163;0.000;0.000;2022-08-11T06:31:26;23.00;67.60
47414;DHT22;33163;0.000;0.000;2022-08-11T06:34:01;23.00;66.50
47414;DHT22;33163;0.000;0.000;2022-08-11T06:36:38;23.00;65.90
47414;DHT22;33163;0.000;0.000;2022-08-11T06:39:16;23.10;65.60
47414;DHT22;33163;0.000;0.000;2022-08-11T06:41:50;23.10;65.80
47414;DHT22;33163;0.000;0.000;2022-08-11T06:44:23;23.10;65.60
47414;DHT22;33163;0.000;0.000;2022-08-11T06:46:53;23.10;66.00
47414;DHT22;33163;0.000;0.000;2022-08-11T06:49:33;23.10;65.30
47414;DHT22;33163;0.000;0.000;2022-08-11T06:52:18;23.10;65.20
47414;DHT22;33163;0.000;0.000;2022-08-11T06:54:50;23.10;65.40
47414;DHT22;33163;0.000;0.000;2022-08-11T06:57:28;23.20;65.30
47414;DHT22;33163;0.000;0.000;2022-08-11T07:00:15;23.10;65.20
47414;DHT22;33163;0.000;0.000;2022-08-11T07:02:58;23.10;65.10
47414;DHT22;33163;0.000;0.000;2022-08-11T07:05:38;23.10;65.00
47414;DHT22;33163;0.000;0.000;2022-08-11T07:08:24;23.10;65.00
47414;DHT22;33163;0.000;0.000;2022-08-11T07:11:33;23.10;65.00
47414;DHT22;33163;0.000;0.000;2022-08-11T07:14:25;23.10;64.60
47414;DHT22;33163;0.000;0.000;2022-08-11T07:17:15;23.10;64.90
47414;DHT22;33163;0.000;0.000;2022-08-11T07:19:49;23.10;64.80
47414;DHT22;33163;0.000;0.000;2022-08-11T07:22:49;23.20;65.00
47414;DHT22;33163;0.000;0.000;2022-08-11T07:25:35;23.20;65.00
47414;DHT22;33163;0.000;0.000;2022-08-11T07:28:24;23.20;65.60
47414;DHT22;33163;0.000;0.000;2022-08-11T07:31:12;23.20;64.80
47414;DHT22;33163;0.000;0.000;2022-08-11T07:33:44;23.20;64.80
47414;DHT22;33163;0.000;0.000;2022-08-11T07:36:12;23.20;65.30
47414;DHT22;33163;0.000;0.000;2022-08-11T07:38:46;23.30;65.20
47414;DHT22;33163;0.000;0.000;2022-08-11T07:41:16;23.30;64.70
47414;DHT22;33163;0.000;0.000;2022-08-11T07:43:45;23.30;65.10
47414;DHT22;33163;0.000;0.000;2022-08-11T07:46:14;23.30;65.90
47414;DHT22;33163;0.000;0.000;2022-08-11T07:48:59;23.30;65.40
47414;DHT22;33163;0.000;0.000;2022-08-11T07:51:45;23.30;65.70
47414;DHT22;33163;0.000;0.000;2022-08-11T07:54:31;23.30;65.60
47414;DHT22;33163;0.000;0.000;2022-08-11T07:56:58;23.30;66.40
47414;DHT22;33163;0.000;0.000;2022-08-11T07:59:26;23.30;65.80
47414;DHT22;33163;0.000;0.000;2022-08-11T08:02:11;23.40;65.70
47414;DHT22;33163;0.000;0.000;2022-08-11T08:04:56;23.40;65.70
47414;DHT22;33163;0.000;0.000;2022-08-11T08:07:41;23.40;65.80
47414;DHT22;33163;0.000;0.000;2022-08-11T08:10:28;23.40;65.80
47414;DHT22;33163;0.000;0.000;2022-08-11T08:13:14;23.40;65.80
47414;DHT22;33163;0.000;0.000;2022-08-11T08:15:59;23.40;65.90
47414;DHT22;33163;0.000;0.000;2022-08-11T08:18:44;23.40;65.90
47414;DHT22;33163;0.000;0.000;2022-08-11T08:21:12;23.40;65.80
47414;DHT22;33163;0.000;0.000;2022-08-11T08:23:42;23.40;65.80
47414;DHT22;33163;0.000;0.000;2022-08-11T08:26:12;23.40;65.80
47414;DHT22;33163;0.000;0.000;2022-08-11T08:28:54;23.40;65.90
47414;DHT22;33163;0.000;0.000;2022-08-11T08:31:42;23.40;65.90
47414;DHT22;33163;0.000;0.000;2022-08-11T08:34:08;23.40;66.00
47414;DHT22;33163;0.000;0.000;2022-08-11T08:36:35;23.40;66.00
47414;DHT22;33163;0.000;0.000;2022-08-11T08:39:02;23.40;65.90
47414;DHT22;33163;0.000;0.000;2022-08-11T08:41:31;23.40;65.90
47414;DHT22;33163;0.000;0.000;2022-08-11T08:44:07;23.50;66.00
47414;DHT22;33163;0.000;0.000;2022-08-11T08:46:37;23.50;66.20
47414;DHT22;33163;0.000;0.000;2022-08-11T08:49:06;23.50;66.30
47414;DHT22;33163;0.000;0.000;2022-08-11T08:51:37;23.50;66.20
47414;DHT22;33163;0.000;0.000;2022-08-11T08:54:08;23.50;66.00
47414;DHT22;33163;0.000;0.000;2022-08-11T08:56:39;23.50;66.00
47414;DHT22;33163;0.000;0.000;2022-08-11T08:59:06;23.50;66.20
47414;DHT22;33163;0.000;0.000;2022-08-11T09:01:37;23.50;66.20
47414;DHT22;33163;0.000;0.000;2022-08-11T09:04:07;23.50;66.10
47414;DHT22;33163;0.000;0.000;2022-08-11T09:06:36;23.50;66.20
47414;DHT22;33163;0.000;0.000;2022-08-11T09:09:06;23.50;66.00
47414;DHT22;33163;0.000;0.000;2022-08-11T09:11:34;23.50;66.10
47414;DHT22;33163;0.000;0.000;2022-08-11T09:14:18;23.50;66.30
47414;DHT22;33163;0.000;0.000;2022-08-11T09:16:46;23.50;66.20
47414;DHT22;33163;0.000;0.000;2022-08-11T09:19:16;23.50;66.30
47414;DHT22;33163;0.000;0.000;2022-08-11T09:21:44;23.50;66.90
47414;DHT22;33163;0.000;0.000;2022-08-11T09:24:32;23.50;66.40
47414;DHT22;33163;0.000;0.000;2022-08-11T09:27:17;23.50;66.30
47414;DHT22;33163;0.000;0.000;2022-08-11T09:29:46;23.50;66.30
47414;DHT22;33163;0.000;0.000;2022-08-11T09:32:14;23.50;66.40
47414;DHT22;33163;0.000;0.000;2022-08-11T09:34:44;23.50;66.40
47414;DHT22;33163;0.000;0.000;2022-08-11T09:37:12;23.50;66.30
47414;DHT22;33163;0.000;0.000;2022-08-11T09:39:57;23.50;66.30
47414;DHT22;33163;0.000;0.000;2022-08-11T09:42:42;23.50;66.30
47414;DHT22;33163;0.000;0.000;2022-08-11T09:45:30;23.50;66.20
47414;DHT22;33163;0.000;0.000;2022-08-11T09:47:58;23.60;66.50
47414;DHT22;33163;0.000;0.000;2022-08-11T09:50:26;23.60;66.30
47414;DHT22;33163;0.000;0.000;2022-08-11T09:52:54;23.60;66.30
47414;DHT22;33163;0.000;0.000;2022-08-11T09:55:21;23.60;66.30
47414;DHT22;33163;0.000;0.000;2022-08-11T09:57:48;23.50;66.10
47414;DHT22;33163;0.000;0.000;2022-08-11T10:00:35;23.60;66.30
47414;DHT22;33163;0.000;0.000;2022-08-11T10:03:05;23.60;66.30
47414;DHT22;33163;0.000;0.000;2022-08-11T10:05:32;23.60;66.20
47414;DHT22;33163;0.000;0.000;2022-08-11T10:08:18;23.60;66.10
47414;DHT22;33163;0.000;0.000;2022-08-11T10:10:47;23.60;66.20
47414;DHT22;33163;0.000;0.000;2022-08-11T10:13:18;23.60;66.40
47414;DHT22;33163;0.000;0.000;2022-08-11T10:15:54;23.60;66.70
47414;DHT22;33163;0.000;0.000;2022-08-11T10:18:31;23.60;65.90
47414;DHT22;33163;0.000;0.000;2022-08-11T10:21:21;23.60;65.80
47414;DHT22;33163;0.000;0.000;2022-08-11T10:23:51;23.60;65.80
47414;DHT22;33163;0.000;0.000;2022-08-11T10:26:37;23.60;65.80
47414;DHT22;33163;0.000;0.000;2022-08-11T10:29:20;23.60;65.70
47414;DHT22;33163;0.000;0.000;2022-08-11T10:32:07;23.60;65.80
47414;DHT22;33163;0.000;0.000;2022-08-11T10:34:52;23.60;65.80
47414;DHT22;33163;0.000;0.000;2022-08-11T10:37:22;23.60;65.90
47414;DHT22;33163;0.000;0.000;2022-08-11T10:39:50;23.60;65.90
47414;DHT22;33163;0.000;0.000;2022-08-11T10:42:18;23.60;66.00
47414;DHT22;33163;0.000;0.000;2022-08-11T10:45:04;23.60;66.00
47414;DHT22;33163;0.000;0.000;2022-08-11T10:47:56;23.60;65.80
47414;DHT22;33163;0.000;0.000;2022-08-11T10:50:23;23.60;65.90
47414;DHT22;33163;0.000;0.000;2022-08-11T10:53:08;23.60;66.00
47414;DHT22;33163;0.000;0.000;2022-08-11T10:55:54;23.60;65.90
47414;DHT22;33163;0.000;0.000;2022-08-11T10:58:39;23.60;65.90
47414;DHT22;33163;0.000;0.000;2022-08-11T11:01:17;23.60;65.80
47414;DHT22;33163;0.000;0.000;2022-08-11T11:03:49;23.60;65.70
47414;DHT22;33163;0.000;0.000;2022-08-11T11:06:22;23.60;65.70
47414;DHT22;33163;0.000;0.000;2022-08-11T11:08:55;23.60;65.60
47414;DHT22;33163;0.000;0.000;2022-08-11T11:11:24;23.60;65.60
47414;DHT22;33163;0.000;0.000;2022-08-11T11:14:17;23.60;65.60
47414;DHT22;33163;0.000;0.000;2022-08-11T11:17:14;23.70;65.70
47414;DHT22;33163;0.000;0.000;2022-08-11T11:20:04;23.70;65.50
47414;DHT22;33163;0.000;0.000;2022-08-11T11:22:32;23.70;65.70
47414;DHT22;33163;0.000;0.000;2022-08-11T11:25:16;23.70;65.60
47414;DHT22;33163;0.000;0.000;2022-08-11T11:28:04;23.70;65.50
47414;DHT22;33163;0.000;0.000;2022-08-11T11:30:42;23.70;65.50
47414;DHT22;33163;0.000;0.000;2022-08-11T11:33:19;23.70;65.40
47414;DHT22;33163;0.000;0.000;2022-08-11T11:35:59;23.70;65.40
47414;DHT22;33163;0.000;0.000;2022-08-11T11:38:32;23.70;65.30
47414;DHT22;33163;0.000;0.000;2022-08-11T11:40:59;23.70;65.30
47414;DHT22;33163;0.000;0.000;2022-08-11T11:43:43;23.70;65.30
47414;DHT22;33163;0.000;0.000;2022-08-11T11:46:11;23.70;65.30
47414;DHT22;33163;0.000;0.000;2022-08-11T11:48:39;23.70;65.30
47414;DHT22;33163;0.000;0.000;2022-08-11T11:51:08;23.80;65.20
47414;DHT22;33163;0.000;0.000;2022-08-11T11:53:38;23.80;65.20
47414;DHT22;33163;0.000;0.000;2022-08-11T11:56:06;23.80;65.90
47414;DHT22;33163;0.000;0.000;2022-08-11T11:58:33;23.80;65.80
47414;DHT22;33163;0.000;0.000;2022-08-11T12:01:18;23.80;65.30
47414;DHT22;33163;0.000;0.000;2022-08-11T12:03:49;23.80;65.20
47414;DHT22;33163;0.000;0.000;2022-08-11T12:06:21;23.80;65.10
47414;DHT22;33163;0.000;0.000;2022-08-11T12:08:51;23.70;65.00
47414;DHT22;33163;0.000;0.000;2022-08-11T12:11:20;23.80;64.90
47414;DHT22;33163;0.000;0.000;2022-08-11T12:14:06;23.80;64.90
47414;DHT22;33163;0.000;0.000;2022-08-11T12:16:36;23.80;65.00
47414;DHT22;33163;0.000;0.000;2022-08-11T12:19:05;23.70;64.90
47414;DHT22;33163;0.000;0.000;2022-08-11T12:21:35;23.80;65.10
47414;DHT22;33163;0.000;0.000;2022-08-11T12:24:03;23.80;64.90
47414;DHT22;33163;0.000;0.000;2022-08-11T12:26:48;23.80;65.30
47414;DHT22;33163;0.000;0.000;2022-08-11T12:29:33;23.80;65.10
47414;DHT22;33163;0.000;0.000;2022-08-11T12:32:00;23.80;65.10
47414;DHT22;33163;0.000;0.000;2022-08-11T12:34:27;23.80;65.20
47414;DHT22;33163;0.000;0.000;2022-08-11T12:36:58;23.80;65.20
47414;DHT22;33163;0.000;0.000;2022-08-11T12:39:33;23.80;65.00
47414;DHT22;33163;0.000;0.000;2022-08-11T12:42:18;23.80;65.20
47414;DHT22;33163;0.000;0.000;2022-08-11T12:45:07;23.90;65.20
47414;DHT22;33163;0.000;0.000;2022-08-11T12:48:00;23.90;65.00
47414;DHT22;33163;0.000;0.000;2022-08-11T12:50:48;23.80;64.80
47414;DHT22;33163;0.000;0.000;2022-08-11T12:53:36;23.80;64.60
47414;DHT22;33163;0.000;0.000;2022-08-11T12:56:06;23.90;64.70
47414;DHT22;33163;0.000;0.000;2022-08-11T12:58:52;23.90;64.90
47414;DHT22;33163;0.000;0.000;2022-08-11T13:01:33;23.80;64.90
47414;DHT22;33163;0.000;0.000;2022-08-11T13:04:17;23.90;65.10
47414;DHT22;33163;0.000;0.000;2022-08-11T13:07:02;23.90;64.20
47414;DHT22;33163;0.000;0.000;2022-08-11T13:09:31;23.90;64.00
47414;DHT22;33163;0.000;0.000;2022-08-11T13:11:58;23.90;63.80
47414;DHT22;33163;0.000;0.000;2022-08-11T13:14:39;23.90;63.80
47414;DHT22;33163;0.000;0.000;2022-08-11T13:17:05;23.90;63.50
47414;DHT22;33163;0.000;0.000;2022-08-11T13:19:48;23.90;63.50
47414;DHT22;33163;0.000;0.000;2022-08-11T13:22:17;23.90;63.70
47414;DHT22;33163;0.000;0.000;2022-08-11T13:24:46;23.90;63.60
47414;DHT22;33163;0.000;0.000;2022-08-11T13:27:16;23.90;63.60
47414;DHT22;33163;0.000;0.000;2022-08-11T13:29:43;23.90;63.60
47414;DHT22;33163;0.000;0.000;2022-08-11T13:32:11;24.00;63.80
47414;DHT22;33163;0.000;0.000;2022-08-11T13:34:39;23.90;63.70
47414;DHT22;33163;0.000;0.000;2022-08-11T13:37:09;23.90;63.70
47414;DHT22;33163;0.000;0.000;2022-08-11T13:39:40;23.90;63.70
47414;DHT22;33163;0.000;0.000;2022-08-11T13:42:14;24.00;63.80
47414;DHT22;33163;0.000;0.000;2022-08-11T13:44:45;23.90;63.70
47414;DHT22;33163;0.000;0.000;2022-08-11T13:47:13;24.00;63.80
47414;DHT22;33163;0.000;0.000;2022-08-11T13:49:41;23.90;63.60
47414;DHT22;33163;0.000;0.000;2022-08-11T13:52:11;23.90;63.60
47414;DHT22;33163;0.000;0.000;2022-08-11T13:54:40;23.90;63.60
47414;DHT22;33163;0.000;0.000;2022-08-11T13:57:08;23.90;63.60
47414;DHT22;33163;0.000;0.000;2022-08-11T13:59:38;23.90;63.60
47414;DHT22;33163;0.000;0.000;2022-08-11T14:02:10;24.00;64.50
47414;DHT22;33163;0.000;0.000;2022-08-11T14:04:40;24.00;65.00
47414;DHT22;33163;0.000;0.000;2022-08-11T14:07:10;24.00;65.00
47414;DHT22;33163;0.000;0.000;2022-08-11T14:09:41;24.00;65.30
47414;DHT22;33163;0.000;0.000;2022-08-11T14:12:13;24.00;65.40
47414;DHT22;33163;0.000;0.000;2022-08-11T14:15:02;24.00;65.40
47414;DHT22;33163;0.000;0.000;2022-08-11T14:17:31;24.00;65.60
47414;DHT22;33163;0.000;0.000;2022-08-11T14:20:03;24.00;65.50
47414;DHT22;33163;0.000;0.000;2022-08-11T14:22:34;24.00;65.40
47414;DHT22;33163;0.000;0.000;2022-08-11T14:25:02;24.00;65.50
47414;DHT22;33163;0.000;0.000;2022-08-11T14:27:29;24.10;65.70
47414;DHT22;33163;0.000;0.000;2022-08-11T14:29:57;24.00;65.70
47414;DHT22;33163;0.000;0.000;2022-08-11T14:32:26;24.10;65.80
47414;DHT22;33163;0.000;0.000;2022-08-11T14:34:53;24.10;65.80
47414;DHT22;33163;0.000;0.000;2022-08-11T14:37:21;24.10;66.40
47414;DHT22;33163;0.000;0.000;2022-08-11T14:39:51;24.00;65.70
47414;DHT22;33163;0.000;0.000;2022-08-11T14:42:20;24.10;65.70
47414;DHT22;33163;0.000;0.000;2022-08-11T14:45:06;24.00;65.60
47414;DHT22;33163;0.000;0.000;2022-08-11T14:47:58;24.10;65.70
47414;DHT22;33163;0.000;0.000;2022-08-11T14:50:29;24.10;65.70
47414;DHT22;33163;0.000;0.000;2022-08-11T14:52:58;24.10;65.70
47414;DHT22;33163;0.000;0.000;2022-08-11T14:55:27;24.10;66.30
47414;DHT22;33163;0.000;0.000;2022-08-11T14:58:15;24.10;65.70
47414;DHT22;33163;0.000;0.000;2022-08-11T15:00:42;24.10;65.60
47414;DHT22;33163;0.000;0.000;2022-08-11T15:03:12;24.00;65.60
47414;DHT22;33163;0.000;0.000;2022-08-11T15:05:41;24.10;65.70
47414;DHT22;33163;0.000;0.000;2022-08-11T15:08:12;24.10;65.70
47414;DHT22;33163;0.000;0.000;2022-08-11T15:10:40;24.10;65.40
47414;DHT22;33163;0.000;0.000;2022-08-11T15:13:07;24.00;65.40
47414;DHT22;33163;0.000;0.000;2022-08-11T15:15:35;24.00;65.70
47414;DHT22;33163;0.000;0.000;2022-08-11T15:18:22;24.10;65.70
47414;DHT22;33163;0.000;0.000;2022-08-11T15:20:49;24.10;65.70
47414;DHT22;33163;0.000;0.000;2022-08-11T15:23:34;24.10;66.30
47414;DHT22;33163;0.000;0.000;2022-08-11T15:26:24;24.10;65.70
47414;DHT22;33163;0.000;0.000;2022-08-11T15:29:20;24.10;65.70
47414;DHT22;33163;0.000;0.000;2022-08-11T15:32:06;24.00;65.70
47414;DHT22;33163;0.000;0.000;2022-08-11T15:35:02;24.10;66.40
47414;DHT22;33163;0.000;0.000;2022-08-11T15:37:51;24.00;65.80
47414;DHT22;33163;0.000;0.000;2022-08-11T15:40:23;24.00;65.70
47414;DHT22;33163;0.000;0.000;2022-08-11T15:43:13;24.00;65.60
47414;DHT22;33163;0.000;0.000;2022-08-11T15:46:02;24.00;65.40
47414;DHT22;33163;0.000;0.000;2022-08-11T15:48:40;24.00;65.40
47414;DHT22;33163;0.000;0.000;2022-08-11T15:51:11;24.00;65.60
47414;DHT22;33163;0.000;0.000;2022-08-11T15:53:42;24.00;65.70
47414;DHT22;33163;0.000;0.000;2022-08-11T15:56:11;24.00;65.60
47414;DHT22;33163;0.000;0.000;2022-08-11T15:58:45;24.10;65.30
47414;DHT22;33163;0.000;0.000;2022-08-11T16:01:30;24.00;64.90
47414;DHT22;33163;0.000;0.000;2022-08-11T16:04:19;24.00;65.00
47414;DHT22;33163;0.000;0.000;2022-08-11T16:06:52;24.00;65.00
47414;DHT22;33163;0.000;0.000;2022-08-11T16:09:24;24.00;65.20
47414;DHT22;33163;0.000;0.000;2022-08-11T16:11:53;24.00;65.30
47414;DHT22;33163;0.000;0.000;2022-08-11T16:14:22;24.00;65.20
47414;DHT22;33163;0.000;0.000;2022-08-11T16:17:09;24.00;65.40
47414;DHT22;33163;0.000;0.000;2022-08-11T16:19:38;24.00;65.00
47414;DHT22;33163;0.000;0.000;2022-08-11T16:22:09;24.00;65.30
47414;DHT22;33163;0.000;0.000;2022-08-11T16:24:38;24.00;65.40
47414;DHT22;33163;0.000;0.000;2022-08-11T16:27:10;24.00;66.00
47414;DHT22;33163;0.000;0.000;2022-08-11T16:29:42;24.00;65.30
47414;DHT22;33163;0.000;0.000;2022-08-11T16:32:12;24.00;64.60
47414;DHT22;33163;0.000;0.000;2022-08-11T16:34:45;24.00;64.20
47414;DHT22;33163;0.000;0.000;2022-08-11T16:37:33;24.00;64.20
47414;DHT22;33163;0.000;0.000;2022-08-11T16:40:19;24.00;64.30
47414;DHT22;33163;0.000;0.000;2022-08-11T16:42:49;24.00;64.20
47414;DHT22;33163;0.000;0.000;2022-08-11T16:45:35;24.00;64.40
47414;DHT22;33163;0.000;0.000;2022-08-11T16:48:21;24.00;65.30
47414;DHT22;33163;0.000;0.000;2022-08-11T16:50:49;24.00;65.60
47414;DHT22;33163;0.000;0.000;2022-08-11T16:53:18;24.10;65.30
47414;DHT22;33163;0.000;0.000;2022-08-11T16:55:46;24.10;65.40
47414;DHT22;33163;0.000;0.000;2022-08-11T16:58:14;24.10;65.50
47414;DHT22;33163;0.000;0.000;2022-08-11T17:01:00;24.10;65.40
47414;DHT22;33163;0.000;0.000;2022-08-11T17:03:29;24.10;65.40
47414;DHT22;33163;0.000;0.000;2022-08-11T17:06:17;24.10;65.50
47414;DHT22;33163;0.000;0.000;2022-08-11T17:09:05;24.10;65.50
47414;DHT22;33163;0.000;0.000;2022-08-11T17:11:55;24.10;65.20
47414;DHT22;33163;0.000;0.000;2022-08-11T17:14:42;24.10;65.40
47414;DHT22;33163;0.000;0.000;2022-08-11T17:17:13;24.10;65.50
47414;DHT22;33163;0.000;0.000;2022-08-11T17:19:44;24.10;65.30
47414;DHT22;33163;0.000;0.000;2022-08-11T17:22:12;24.10;65.40
47414;DHT22;33163;0.000;0.000;2022-08-11T17:24:59;24.10;65.50
47414;DHT22;33163;0.000;0.000;2022-08-11T17:27:27;24.10;65.60
47414;DHT22;33163;0.000;0.000;2022-08-11T17:29:57;24.10;65.60